sensor_id;sensor_type;location;lat;lon;timestamp;P1;durP1;ratioP1;P2;durP2;ratioP2
34896;SDS011;43407;51.828;-2.298;2023-05-14T00:00:13;9.98;;;9.02;;
34896;SDS011;43407;51.828;-2.298;2023-05-14T00:02:40;9.52;;;8.65;;
34896;SDS011;43407;51.828;-2.298;2023-05-14T00:05:06;10.82;;;9.48;;
34896;SDS011;43407;51.828;-2.298;2023-05-14T00:07:35;10.63;;;9.52;;
34896;SDS011;43407;51.828;-2.298;2023-05-14T00:10:00;10.38;;;9.45;;
34896;SDS011;43407;51.828;-2.298;2023-05-14T00:12:26;10.98;;;9.88;;
34896;SDS011;43407;51.828;-2.298;2023-05-14T00:14:52;10.77;;;9.77;;
34896;SDS011;43407;51.828;-2.298;2023-05-14T00:17:18;10.45;;;9.45;;
34896;SDS011;43407;51.828;-2.298;2023-05-14T00:19:43;11.18;;;10.07;;
34896;SDS011;43407;51.828;-2.298;2023-05-14T00:22:09;11.15;;;10.07;;
34896;SDS011;43407;51.828;-2.298;2023-05-14T00:24:35;9.73;;;8.82;;
34896;SDS011;43407;51.828;-2.298;2023-05-14T00:27:01;12.07;;;10.60;;
34896;SDS011;43407;51.828;-2.298;2023-05-14T00:29:27;10.55;;;9.55;;
34896;SDS011;43407;51.828;-2.298;2023-05-14T00:31:52;11.85;;;10.57;;
34896;SDS011;43407;51.828;-2.298;2023-05-14T00:34:18;12.13;;;10.85;;
34896;SDS011;43407;51.828;-2.298;2023-05-14T00:36:44;11.15;;;10.05;;
34896;SDS011;43407;51.828;-2.298;2023-05-14T00:39:09;10.82;;;9.73;;
34896;SDS011;43407;51.828;-2.298;2023-05-14T00:41:35;11.10;;;9.77;;
34896;SDS011;43407;51.828;-2.298;2023-05-14T00:44:01;11.00;;;9.90;;
34896;SDS011;43407;51.828;-2.298;2023-05-14T00:46:26;11.32;;;10.10;;
34896;SDS011;43407;51.828;-2.298;2023-05-14T00:48:52;11.10;;;9.77;;
34896;SDS011;43407;51.828;-2.298;2023-05-14T00:51:18;11.40;;;10.23;;
34896;SDS011;43407;51.828;-2.298;2023-05-14T00:53:44;11.82;;;10.57;;
34896;SDS011;43407;51.828;-2.298;2023-05-14T00:56:10;11.57;;;10.43;;
34896;SDS011;43407;51.828;-2.298;2023-05-14T00:58:36;11.57;;;10.13;;
34896;SDS011;43407;51.828;-2.298;2023-05-14T01:01:01;11.52;;;10.38;;
34896;SDS011;43407;51.828;-2.298;2023-05-14T01:03:28;12.52;;;11.32;;
34896;SDS011;43407;51.828;-2.298;2023-05-14T01:05:57;13.57;;;12.18;;
34896;SDS011;43407;51.828;-2.298;2023-05-14T01:08:39;13.27;;;11.88;;
34896;SDS011;43407;51.828;-2.298;2023-05-14T01:16:35;12.05;;;10.68;;
34896;SDS011;43407;51.828;-2.298;2023-05-14T01:19:02;11.27;;;10.23;;
34896;SDS011;43407;51.828;-2.298;2023-05-14T01:21:35;12.07;;;10.75;;
34896;SDS011;43407;51.828;-2.298;2023-05-14T01:24:02;13.25;;;11.88;;
34896;SDS011;43407;51.828;-2.298;2023-05-14T01:26:28;11.50;;;10.40;;
34896;SDS011;43407;51.828;-2.298;2023-05-14T01:31:46;11.55;;;10.05;;
34896;SDS011;43407;51.828;-2.298;2023-05-14T01:34:12;10.82;;;9.73;;
34896;SDS011;43407;51.828;-2.298;2023-05-14T01:36:39;11.40;;;10.27;;
34896;SDS011;43407;51.828;-2.298;2023-05-14T01:39:05;11.30;;;10.13;;
34896;SDS011;43407;51.828;-2.298;2023-05-14T01:41:34;11.82;;;10.60;;
34896;SDS011;43407;51.828;-2.298;2023-05-14T01:44:00;13.50;;;10.55;;
34896;SDS011;43407;51.828;-2.298;2023-05-14T01:46:25;11.32;;;10.00;;
34896;SDS011;43407;51.828;-2.298;2023-05-14T01:48:58;10.98;;;9.98;;
34896;SDS011;43407;51.828;-2.298;2023-05-14T01:51:24;8.23;;;7.53;;
34896;SDS011;43407;51.828;-2.298;2023-05-14T01:53:49;8.57;;;7.78;;
34896;SDS011;43407;51.828;-2.298;2023-05-14T01:56:16;10.00;;;7.43;;
34896;SDS011;43407;51.828;-2.298;2023-05-14T01:58:42;11.00;;;8.73;;
34896;SDS011;43407;51.828;-2.298;2023-05-14T02:01:07;8.55;;;7.75;;
34896;SDS011;43407;51.828;-2.298;2023-05-14T02:03:33;9.18;;;8.27;;
34896;SDS011;43407;51.828;-2.298;2023-05-14T02:05:58;9.70;;;8.80;;
34896;SDS011;43407;51.828;-2.298;2023-05-14T02:08:24;10.52;;;8.70;;
34896;SDS011;43407;51.828;-2.298;2023-05-14T02:10:49;10.70;;;9.70;;
34896;SDS011;43407;51.828;-2.298;2023-05-14T02:13:15;9.18;;;7.97;;
34896;SDS011;43407;51.828;-2.298;2023-05-14T02:15:41;8.55;;;7.75;;
34896;SDS011;43407;51.828;-2.298;2023-05-14T02:18:06;8.32;;;7.57;;
34896;SDS011;43407;51.828;-2.298;2023-05-14T02:20:32;8.38;;;7.68;;
34896;SDS011;43407;51.828;-2.298;2023-05-14T02:22:57;8.48;;;7.68;;
34896;SDS011;43407;51.828;-2.298;2023-05-14T02:25:26;8.88;;;8.07;;
34896;SDS011;43407;51.828;-2.298;2023-05-14T02:27:51;8.20;;;7.40;;
34896;SDS011;43407;51.828;-2.298;2023-05-14T02:30:17;8.18;;;7.40;;
34896;SDS011;43407;51.828;-2.298;2023-05-14T02:32:42;7.90;;;7.20;;
34896;SDS011;43407;51.828;-2.298;2023-05-14T02:35:08;7.35;;;6.75;;
34896;SDS011;43407;51.828;-2.298;2023-05-14T02:37:33;7.13;;;6.13;;
34896;SDS011;43407;51.828;-2.298;2023-05-14T02:39:59;6.80;;;6.20;;
34896;SDS011;43407;51.828;-2.298;2023-05-14T02:42:25;8.35;;;7.60;;
34896;SDS011;43407;51.828;-2.298;2023-05-14T02:44:51;7.85;;;7.15;;
34896;SDS011;43407;51.828;-2.298;2023-05-14T02:47:17;8.38;;;7.68;;
34896;SDS011;43407;51.828;-2.298;2023-05-14T02:49:42;8.55;;;7.85;;
34896;SDS011;43407;51.828;-2.298;2023-05-14T02:52:08;8.77;;;7.35;;
34896;SDS011;43407;51.828;-2.298;2023-05-14T02:54:33;7.80;;;7.10;;
34896;SDS011;43407;51.828;-2.298;2023-05-14T02:56:59;10.35;;;7.45;;
34896;SDS011;43407;51.828;-2.298;2023-05-14T02:59:25;8.70;;;7.90;;
34896;SDS011;43407;51.828;-2.298;2023-05-14T03:01:51;8.65;;;7.85;;
34896;SDS011;43407;51.828;-2.298;2023-05-14T03:04:16;8.48;;;7.68;;
34896;SDS011;43407;51.828;-2.298;2023-05-14T03:06:41;8.55;;;7.65;;
34896;SDS011;43407;51.828;-2.298;2023-05-14T03:09:07;11.48;;;8.23;;
34896;SDS011;43407;51.828;-2.298;2023-05-14T03:11:32;16.70;;;8.43;;
34896;SDS011;43407;51.828;-2.298;2023-05-14T03:13:58;11.07;;;9.13;;
34896;SDS011;43407;51.828;-2.298;2023-05-14T03:16:23;12.30;;;8.68;;
34896;SDS011;43407;51.828;-2.298;2023-05-14T03:18:49;25.52;;;8.68;;
34896;SDS011;43407;51.828;-2.298;2023-05-14T03:21:14;13.80;;;9.20;;
34896;SDS011;43407;51.828;-2.298;2023-05-14T03:23:40;13.75;;;9.13;;
34896;SDS011;43407;51.828;-2.298;2023-05-14T03:26:05;10.55;;;8.45;;
34896;SDS011;43407;51.828;-2.298;2023-05-14T03:28:31;9.65;;;8.55;;
34896;SDS011;43407;51.828;-2.298;2023-05-14T03:30:56;11.38;;;8.63;;
34896;SDS011;43407;51.828;-2.298;2023-05-14T03:33:22;10.32;;;8.98;;
34896;SDS011;43407;51.828;-2.298;2023-05-14T03:35:48;8.30;;;6.72;;
34896;SDS011;43407;51.828;-2.298;2023-05-14T03:38:13;8.63;;;7.72;;
34896;SDS011;43407;51.828;-2.298;2023-05-14T03:40:39;10.68;;;9.48;;
34896;SDS011;43407;51.828;-2.298;2023-05-14T03:43:04;8.70;;;7.90;;
34896;SDS011;43407;51.828;-2.298;2023-05-14T03:45:30;7.30;;;6.60;;
34896;SDS011;43407;51.828;-2.298;2023-05-14T03:47:56;7.80;;;7.10;;
34896;SDS011;43407;51.828;-2.298;2023-05-14T03:50:21;10.73;;;9.15;;
34896;SDS011;43407;51.828;-2.298;2023-05-14T03:52:49;9.80;;;8.90;;
34896;SDS011;43407;51.828;-2.298;2023-05-14T03:55:17;7.53;;;6.93;;
34896;SDS011;43407;51.828;-2.298;2023-05-14T03:57:43;8.23;;;7.43;;
34896;SDS011;43407;51.828;-2.298;2023-05-14T04:00:09;8.95;;;8.15;;
34896;SDS011;43407;51.828;-2.298;2023-05-14T04:02:35;9.02;;;8.23;;
34896;SDS011;43407;51.828;-2.298;2023-05-14T04:05:01;9.05;;;8.15;;
34896;SDS011;43407;51.828;-2.298;2023-05-14T04:07:27;7.57;;;6.97;;
34896;SDS011;43407;51.828;-2.298;2023-05-14T04:09:52;7.28;;;6.68;;
34896;SDS011;43407;51.828;-2.298;2023-05-14T04:12:17;7.63;;;6.97;;
34896;SDS011;43407;51.828;-2.298;2023-05-14T04:14:43;8.80;;;8.00;;
34896;SDS011;43407;51.828;-2.298;2023-05-14T04:17:08;8.80;;;7.90;;
34896;SDS011;43407;51.828;-2.298;2023-05-14T04:19:34;8.90;;;8.00;;
34896;SDS011;43407;51.828;-2.298;2023-05-14T04:21:59;9.18;;;8.27;;
34896;SDS011;43407;51.828;-2.298;2023-05-14T04:24:25;9.30;;;8.48;;
34896;SDS011;43407;51.828;-2.298;2023-05-14T04:26:51;9.13;;;8.25;;
34896;SDS011;43407;51.828;-2.298;2023-05-14T04:29:16;9.35;;;8.50;;
34896;SDS011;43407;51.828;-2.298;2023-05-14T04:31:43;8.75;;;8.05;;
34896;SDS011;43407;51.828;-2.298;2023-05-14T04:34:08;10.48;;;9.38;;
34896;SDS011;43407;51.828;-2.298;2023-05-14T04:36:34;10.65;;;9.65;;
34896;SDS011;43407;51.828;-2.298;2023-05-14T04:39:00;9.18;;;8.27;;
34896;SDS011;43407;51.828;-2.298;2023-05-14T04:41:25;10.52;;;9.45;;
34896;SDS011;43407;51.828;-2.298;2023-05-14T04:43:54;10.52;;;9.43;;
34896;SDS011;43407;51.828;-2.298;2023-05-14T04:46:20;9.63;;;8.63;;
34896;SDS011;43407;51.828;-2.298;2023-05-14T04:48:46;11.07;;;9.98;;
34896;SDS011;43407;51.828;-2.298;2023-05-14T04:51:12;10.35;;;9.35;;
34896;SDS011;43407;51.828;-2.298;2023-05-14T04:53:38;11.73;;;10.43;;
34896;SDS011;43407;51.828;-2.298;2023-05-14T04:56:04;10.68;;;9.57;;
34896;SDS011;43407;51.828;-2.298;2023-05-14T04:58:30;11.85;;;9.88;;
34896;SDS011;43407;51.828;-2.298;2023-05-14T05:00:56;10.43;;;9.43;;
34896;SDS011;43407;51.828;-2.298;2023-05-14T05:03:23;10.23;;;9.23;;
34896;SDS011;43407;51.828;-2.298;2023-05-14T05:05:48;9.00;;;8.20;;
34896;SDS011;43407;51.828;-2.298;2023-05-14T05:08:14;8.93;;;8.10;;
34896;SDS011;43407;51.828;-2.298;2023-05-14T05:10:40;8.35;;;7.65;;
34896;SDS011;43407;51.828;-2.298;2023-05-14T05:13:06;8.48;;;7.72;;
34896;SDS011;43407;51.828;-2.298;2023-05-14T05:15:31;7.88;;;7.18;;
34896;SDS011;43407;51.828;-2.298;2023-05-14T05:17:57;8.88;;;8.13;;
34896;SDS011;43407;51.828;-2.298;2023-05-14T05:20:22;8.95;;;8.15;;
34896;SDS011;43407;51.828;-2.298;2023-05-14T05:22:49;8.57;;;7.70;;
34896;SDS011;43407;51.828;-2.298;2023-05-14T05:25:14;6.63;;;6.05;;
34896;SDS011;43407;51.828;-2.298;2023-05-14T05:27:40;10.07;;;9.13;;
34896;SDS011;43407;51.828;-2.298;2023-05-14T05:30:06;9.13;;;8.13;;
34896;SDS011;43407;51.828;-2.298;2023-05-14T05:32:32;9.10;;;8.20;;
34896;SDS011;43407;51.828;-2.298;2023-05-14T05:34:58;13.57;;;10.82;;
34896;SDS011;43407;51.828;-2.298;2023-05-14T05:37:23;20.20;;;13.70;;
34896;SDS011;43407;51.828;-2.298;2023-05-14T05:39:49;31.85;;;15.07;;
34896;SDS011;43407;51.828;-2.298;2023-05-14T05:42:15;30.25;;;15.27;;
34896;SDS011;43407;51.828;-2.298;2023-05-14T05:44:40;12.48;;;11.18;;
34896;SDS011;43407;51.828;-2.298;2023-05-14T05:47:06;38.72;;;13.73;;
34896;SDS011;43407;51.828;-2.298;2023-05-14T05:49:31;24.88;;;13.95;;
34896;SDS011;43407;51.828;-2.298;2023-05-14T05:51:57;17.15;;;13.80;;
34896;SDS011;43407;51.828;-2.298;2023-05-14T05:54:23;18.25;;;14.88;;
34896;SDS011;43407;51.828;-2.298;2023-05-14T05:56:49;15.18;;;13.55;;
34896;SDS011;43407;51.828;-2.298;2023-05-14T05:59:15;15.45;;;13.65;;
34896;SDS011;43407;51.828;-2.298;2023-05-14T06:01:40;16.75;;;13.48;;
34896;SDS011;43407;51.828;-2.298;2023-05-14T06:04:07;16.60;;;14.25;;
34896;SDS011;43407;51.828;-2.298;2023-05-14T06:06:33;14.85;;;13.02;;
34896;SDS011;43407;51.828;-2.298;2023-05-14T06:08:59;13.00;;;11.75;;
34896;SDS011;43407;51.828;-2.298;2023-05-14T06:11:26;14.07;;;12.65;;
34896;SDS011;43407;51.828;-2.298;2023-05-14T06:13:51;14.43;;;12.35;;
34896;SDS011;43407;51.828;-2.298;2023-05-14T06:16:17;13.02;;;11.73;;
34896;SDS011;43407;51.828;-2.298;2023-05-14T06:18:43;12.10;;;10.90;;
34896;SDS011;43407;51.828;-2.298;2023-05-14T06:21:08;11.93;;;10.73;;
34896;SDS011;43407;51.828;-2.298;2023-05-14T06:23:34;14.65;;;13.25;;
34896;SDS011;43407;51.828;-2.298;2023-05-14T06:25:59;13.90;;;12.45;;
34896;SDS011;43407;51.828;-2.298;2023-05-14T06:28:25;13.20;;;12.00;;
34896;SDS011;43407;51.828;-2.298;2023-05-14T06:30:50;13.52;;;12.13;;
34896;SDS011;43407;51.828;-2.298;2023-05-14T06:33:18;12.32;;;11.13;;
34896;SDS011;43407;51.828;-2.298;2023-05-14T06:35:45;11.73;;;10.63;;
34896;SDS011;43407;51.828;-2.298;2023-05-14T06:38:10;13.35;;;11.98;;
34896;SDS011;43407;51.828;-2.298;2023-05-14T06:40:36;14.32;;;12.88;;
34896;SDS011;43407;51.828;-2.298;2023-05-14T06:43:01;12.65;;;11.43;;
34896;SDS011;43407;51.828;-2.298;2023-05-14T06:45:27;12.15;;;11.05;;
34896;SDS011;43407;51.828;-2.298;2023-05-14T06:47:54;11.98;;;10.85;;
34896;SDS011;43407;51.828;-2.298;2023-05-14T06:50:19;10.55;;;9.55;;
34896;SDS011;43407;51.828;-2.298;2023-05-14T06:52:45;11.40;;;10.40;;
34896;SDS011;43407;51.828;-2.298;2023-05-14T06:55:10;12.50;;;11.35;;
34896;SDS011;43407;51.828;-2.298;2023-05-14T06:57:36;13.55;;;12.25;;
34896;SDS011;43407;51.828;-2.298;2023-05-14T07:00:02;13.88;;;12.40;;
34896;SDS011;43407;51.828;-2.298;2023-05-14T07:02:28;14.82;;;13.32;;
34896;SDS011;43407;51.828;-2.298;2023-05-14T07:04:54;15.45;;;13.95;;
34896;SDS011;43407;51.828;-2.298;2023-05-14T07:07:20;12.80;;;11.52;;
34896;SDS011;43407;51.828;-2.298;2023-05-14T07:09:45;14.45;;;13.10;;
34896;SDS011;43407;51.828;-2.298;2023-05-14T07:12:11;16.88;;;15.18;;
34896;SDS011;43407;51.828;-2.298;2023-05-14T07:14:37;14.70;;;13.25;;
34896;SDS011;43407;51.828;-2.298;2023-05-14T07:17:02;16.45;;;14.70;;
34896;SDS011;43407;51.828;-2.298;2023-05-14T07:19:28;14.55;;;13.15;;
34896;SDS011;43407;51.828;-2.298;2023-05-14T07:21:54;14.07;;;12.48;;
34896;SDS011;43407;51.828;-2.298;2023-05-14T07:24:21;15.50;;;13.98;;
34896;SDS011;43407;51.828;-2.298;2023-05-14T07:26:47;15.45;;;13.95;;
34896;SDS011;43407;51.828;-2.298;2023-05-14T07:29:13;15.32;;;13.73;;
34896;SDS011;43407;51.828;-2.298;2023-05-14T07:31:38;15.30;;;13.70;;
34896;SDS011;43407;51.828;-2.298;2023-05-14T07:34:04;13.88;;;12.57;;
34896;SDS011;43407;51.828;-2.298;2023-05-14T07:36:29;16.63;;;14.82;;
34896;SDS011;43407;51.828;-2.298;2023-05-14T07:38:55;14.98;;;13.55;;
34896;SDS011;43407;51.828;-2.298;2023-05-14T07:41:21;15.23;;;13.63;;
34896;SDS011;43407;51.828;-2.298;2023-05-14T07:43:46;13.93;;;12.52;;
34896;SDS011;43407;51.828;-2.298;2023-05-14T07:46:12;12.98;;;11.68;;
34896;SDS011;43407;51.828;-2.298;2023-05-14T07:48:38;13.80;;;11.90;;
34896;SDS011;43407;51.828;-2.298;2023-05-14T07:51:03;16.05;;;12.73;;
34896;SDS011;43407;51.828;-2.298;2023-05-14T07:53:29;12.57;;;11.35;;
34896;SDS011;43407;51.828;-2.298;2023-05-14T07:55:55;14.98;;;13.40;;
34896;SDS011;43407;51.828;-2.298;2023-05-14T07:58:20;14.60;;;13.10;;
34896;SDS011;43407;51.828;-2.298;2023-05-14T08:00:47;14.60;;;13.10;;
34896;SDS011;43407;51.828;-2.298;2023-05-14T08:03:12;12.68;;;11.45;;
34896;SDS011;43407;51.828;-2.298;2023-05-14T08:05:38;12.18;;;10.98;;
34896;SDS011;43407;51.828;-2.298;2023-05-14T08:08:03;14.52;;;13.13;;
34896;SDS011;43407;51.828;-2.298;2023-05-14T08:10:29;14.82;;;13.18;;
34896;SDS011;43407;51.828;-2.298;2023-05-14T08:12:55;13.45;;;12.20;;
34896;SDS011;43407;51.828;-2.298;2023-05-14T08:15:20;12.82;;;11.55;;
34896;SDS011;43407;51.828;-2.298;2023-05-14T08:17:46;12.57;;;11.40;;
34896;SDS011;43407;51.828;-2.298;2023-05-14T08:20:11;15.23;;;13.63;;
34896;SDS011;43407;51.828;-2.298;2023-05-14T08:22:37;13.43;;;12.07;;
34896;SDS011;43407;51.828;-2.298;2023-05-14T08:25:02;14.38;;;13.07;;
34896;SDS011;43407;51.828;-2.298;2023-05-14T08:27:29;14.63;;;13.23;;
34896;SDS011;43407;51.828;-2.298;2023-05-14T08:29:55;16.65;;;14.05;;
34896;SDS011;43407;51.828;-2.298;2023-05-14T08:32:21;14.75;;;13.32;;
34896;SDS011;43407;51.828;-2.298;2023-05-14T08:34:46;16.30;;;14.38;;
34896;SDS011;43407;51.828;-2.298;2023-05-14T08:37:11;14.18;;;12.68;;
34896;SDS011;43407;51.828;-2.298;2023-05-14T08:39:37;15.65;;;13.98;;
34896;SDS011;43407;51.828;-2.298;2023-05-14T08:42:03;14.38;;;12.98;;
34896;SDS011;43407;51.828;-2.298;2023-05-14T08:44:46;14.45;;;12.95;;
34896;SDS011;43407;51.828;-2.298;2023-05-14T08:47:14;17.27;;;15.30;;
34896;SDS011;43407;51.828;-2.298;2023-05-14T08:52:09;17.98;;;16.13;;
34896;SDS011;43407;51.828;-2.298;2023-05-14T08:54:35;21.40;;;19.10;;
34896;SDS011;43407;51.828;-2.298;2023-05-14T08:57:02;22.35;;;19.77;;
34896;SDS011;43407;51.828;-2.298;2023-05-14T08:59:28;20.88;;;18.77;;
34896;SDS011;43407;51.828;-2.298;2023-05-14T09:01:54;20.40;;;18.23;;
34896;SDS011;43407;51.828;-2.298;2023-05-14T09:04:21;25.10;;;22.38;;
34896;SDS011;43407;51.828;-2.298;2023-05-14T09:06:49;24.27;;;21.70;;
34896;SDS011;43407;51.828;-2.298;2023-05-14T09:09:15;25.88;;;23.13;;
34896;SDS011;43407;51.828;-2.298;2023-05-14T09:11:42;27.20;;;23.83;;
34896;SDS011;43407;51.828;-2.298;2023-05-14T09:14:10;21.42;;;19.23;;
34896;SDS011;43407;51.828;-2.298;2023-05-14T09:16:36;22.98;;;20.48;;
34896;SDS011;43407;51.828;-2.298;2023-05-14T09:19:05;21.98;;;19.80;;
34896;SDS011;43407;51.828;-2.298;2023-05-14T09:21:32;21.90;;;19.83;;
34896;SDS011;43407;51.828;-2.298;2023-05-14T09:23:58;21.08;;;18.92;;
34896;SDS011;43407;51.828;-2.298;2023-05-14T09:26:24;22.48;;;19.08;;
34896;SDS011;43407;51.828;-2.298;2023-05-14T09:28:59;21.70;;;19.35;;
34896;SDS011;43407;51.828;-2.298;2023-05-14T09:31:26;21.52;;;18.48;;
34896;SDS011;43407;51.828;-2.298;2023-05-14T09:33:55;20.00;;;17.90;;
34896;SDS011;43407;51.828;-2.298;2023-05-14T09:36:22;19.63;;;17.63;;
34896;SDS011;43407;51.828;-2.298;2023-05-14T09:38:49;18.98;;;16.98;;
34896;SDS011;43407;51.828;-2.298;2023-05-14T09:41:14;21.25;;;18.65;;
34896;SDS011;43407;51.828;-2.298;2023-05-14T09:43:40;22.85;;;20.40;;
34896;SDS011;43407;51.828;-2.298;2023-05-14T09:46:06;21.02;;;18.90;;
34896;SDS011;43407;51.828;-2.298;2023-05-14T09:48:31;19.85;;;17.90;;
34896;SDS011;43407;51.828;-2.298;2023-05-14T09:50:57;19.08;;;17.13;;
34896;SDS011;43407;51.828;-2.298;2023-05-14T09:53:22;22.30;;;19.92;;
34896;SDS011;43407;51.828;-2.298;2023-05-14T09:55:48;22.95;;;20.65;;
34896;SDS011;43407;51.828;-2.298;2023-05-14T09:58:13;19.65;;;17.65;;
34896;SDS011;43407;51.828;-2.298;2023-05-14T10:00:41;20.38;;;17.85;;
34896;SDS011;43407;51.828;-2.298;2023-05-14T10:03:09;21.70;;;19.50;;
34896;SDS011;43407;51.828;-2.298;2023-05-14T10:05:37;23.27;;;20.75;;
34896;SDS011;43407;51.828;-2.298;2023-05-14T10:08:07;24.52;;;21.92;;
34896;SDS011;43407;51.828;-2.298;2023-05-14T10:10:36;21.52;;;19.15;;
34896;SDS011;43407;51.828;-2.298;2023-05-14T10:13:03;24.38;;;21.88;;
34896;SDS011;43407;51.828;-2.298;2023-05-14T10:18:40;26.03;;;22.57;;
34896;SDS011;43407;51.828;-2.298;2023-05-14T10:21:07;28.98;;;24.60;;
34896;SDS011;43407;51.828;-2.298;2023-05-14T10:23:33;29.60;;;24.88;;
34896;SDS011;43407;51.828;-2.298;2023-05-14T10:26:01;26.25;;;22.42;;
34896;SDS011;43407;51.828;-2.298;2023-05-14T10:28:28;23.20;;;20.83;;
34896;SDS011;43407;51.828;-2.298;2023-05-14T10:30:54;23.58;;;21.05;;
34896;SDS011;43407;51.828;-2.298;2023-05-14T10:33:19;24.17;;;21.65;;
34896;SDS011;43407;51.828;-2.298;2023-05-14T10:36:04;31.95;;;26.77;;
34896;SDS011;43407;51.828;-2.298;2023-05-14T10:38:33;34.85;;;27.85;;
34896;SDS011;43407;51.828;-2.298;2023-05-14T10:41:03;27.58;;;24.70;;
34896;SDS011;43407;51.828;-2.298;2023-05-14T10:43:37;26.55;;;23.83;;
34896;SDS011;43407;51.828;-2.298;2023-05-14T10:46:04;28.45;;;24.83;;
34896;SDS011;43407;51.828;-2.298;2023-05-14T10:48:30;24.77;;;22.02;;
34896;SDS011;43407;51.828;-2.298;2023-05-14T10:50:56;26.40;;;23.67;;
34896;SDS011;43407;51.828;-2.298;2023-05-14T10:53:38;22.38;;;20.13;;
34896;SDS011;43407;51.828;-2.298;2023-05-14T10:56:05;20.00;;;17.90;;
34896;SDS011;43407;51.828;-2.298;2023-05-14T10:58:42;23.42;;;20.92;;
34896;SDS011;43407;51.828;-2.298;2023-05-14T11:01:09;20.48;;;18.38;;
34896;SDS011;43407;51.828;-2.298;2023-05-14T11:03:46;21.63;;;19.48;;
34896;SDS011;43407;51.828;-2.298;2023-05-14T11:06:13;19.02;;;17.13;;
34896;SDS011;43407;51.828;-2.298;2023-05-14T11:08:39;23.65;;;21.23;;
34896;SDS011;43407;51.828;-2.298;2023-05-14T11:11:05;19.08;;;17.13;;
34896;SDS011;43407;51.828;-2.298;2023-05-14T11:13:32;18.70;;;16.90;;
34896;SDS011;43407;51.828;-2.298;2023-05-14T11:15:59;19.75;;;17.85;;
34896;SDS011;43407;51.828;-2.298;2023-05-14T11:18:29;14.52;;;13.23;;
34896;SDS011;43407;51.828;-2.298;2023-05-14T11:21:04;16.67;;;14.98;;
34896;SDS011;43407;51.828;-2.298;2023-05-14T11:23:30;16.25;;;14.68;;
34896;SDS011;43407;51.828;-2.298;2023-05-14T11:25:56;17.13;;;15.52;;
34896;SDS011;43407;51.828;-2.298;2023-05-14T11:28:22;14.55;;;13.23;;
34896;SDS011;43407;51.828;-2.298;2023-05-14T11:30:51;17.33;;;15.05;;
34896;SDS011;43407;51.828;-2.298;2023-05-14T11:33:18;14.18;;;12.88;;
34896;SDS011;43407;51.828;-2.298;2023-05-14T11:35:44;15.68;;;14.18;;
34896;SDS011;43407;51.828;-2.298;2023-05-14T11:38:19;15.57;;;13.18;;
34896;SDS011;43407;51.828;-2.298;2023-05-14T11:40:52;13.18;;;11.98;;
34896;SDS011;43407;51.828;-2.298;2023-05-14T11:43:18;17.10;;;14.45;;
34896;SDS011;43407;51.828;-2.298;2023-05-14T11:45:48;15.00;;;13.13;;
34896;SDS011;43407;51.828;-2.298;2023-05-14T11:48:15;13.30;;;12.00;;
34896;SDS011;43407;51.828;-2.298;2023-05-14T11:50:51;14.07;;;12.68;;
34896;SDS011;43407;51.828;-2.298;2023-05-14T11:53:24;14.30;;;13.00;;
34896;SDS011;43407;51.828;-2.298;2023-05-14T11:55:53;14.52;;;13.20;;
34896;SDS011;43407;51.828;-2.298;2023-05-14T11:58:19;14.10;;;12.77;;
34896;SDS011;43407;51.828;-2.298;2023-05-14T12:00:48;16.80;;;15.23;;
34896;SDS011;43407;51.828;-2.298;2023-05-14T12:03:14;16.15;;;14.52;;
34896;SDS011;43407;51.828;-2.298;2023-05-14T12:05:40;15.70;;;14.25;;
34896;SDS011;43407;51.828;-2.298;2023-05-14T12:08:22;15.15;;;13.65;;
34896;SDS011;43407;51.828;-2.298;2023-05-14T12:10:53;15.02;;;13.52;;
34896;SDS011;43407;51.828;-2.298;2023-05-14T12:13:20;16.75;;;15.05;;
34896;SDS011;43407;51.828;-2.298;2023-05-14T12:15:47;17.20;;;15.50;;
34896;SDS011;43407;51.828;-2.298;2023-05-14T12:18:18;14.52;;;13.13;;
34896;SDS011;43407;51.828;-2.298;2023-05-14T12:20:47;14.32;;;12.93;;
34896;SDS011;43407;51.828;-2.298;2023-05-14T12:23:13;13.43;;;12.23;;
34896;SDS011;43407;51.828;-2.298;2023-05-14T12:25:39;12.65;;;11.45;;
34896;SDS011;43407;51.828;-2.298;2023-05-14T12:28:14;14.82;;;13.40;;
34896;SDS011;43407;51.828;-2.298;2023-05-14T12:30:40;11.95;;;10.75;;
34896;SDS011;43407;51.828;-2.298;2023-05-14T12:33:06;11.38;;;10.38;;
34896;SDS011;43407;51.828;-2.298;2023-05-14T12:35:31;12.32;;;11.13;;
34896;SDS011;43407;51.828;-2.298;2023-05-14T12:37:57;10.95;;;9.43;;
34896;SDS011;43407;51.828;-2.298;2023-05-14T12:40:23;11.88;;;10.65;;
34896;SDS011;43407;51.828;-2.298;2023-05-14T12:42:48;11.35;;;10.35;;
34896;SDS011;43407;51.828;-2.298;2023-05-14T12:45:14;12.20;;;10.73;;
34896;SDS011;43407;51.828;-2.298;2023-05-14T12:47:40;12.70;;;11.43;;
34896;SDS011;43407;51.828;-2.298;2023-05-14T12:50:05;10.35;;;9.35;;
34896;SDS011;43407;51.828;-2.298;2023-05-14T12:52:31;13.55;;;12.25;;
34896;SDS011;43407;51.828;-2.298;2023-05-14T12:54:57;11.63;;;9.60;;
34896;SDS011;43407;51.828;-2.298;2023-05-14T12:57:23;11.25;;;10.15;;
34896;SDS011;43407;51.828;-2.298;2023-05-14T12:59:48;14.82;;;10.05;;
34896;SDS011;43407;51.828;-2.298;2023-05-14T13:02:14;10.70;;;9.60;;
34896;SDS011;43407;51.828;-2.298;2023-05-14T13:04:41;10.73;;;9.63;;
34896;SDS011;43407;51.828;-2.298;2023-05-14T13:07:07;11.23;;;10.13;;
34896;SDS011;43407;51.828;-2.298;2023-05-14T13:09:33;13.40;;;12.02;;
34896;SDS011;43407;51.828;-2.298;2023-05-14T13:11:58;11.70;;;10.40;;
34896;SDS011;43407;51.828;-2.298;2023-05-14T13:14:24;10.93;;;9.85;;
34896;SDS011;43407;51.828;-2.298;2023-05-14T13:16:49;12.52;;;10.45;;
34896;SDS011;43407;51.828;-2.298;2023-05-14T13:19:15;12.52;;;11.32;;
34896;SDS011;43407;51.828;-2.298;2023-05-14T13:21:40;12.52;;;11.15;;
34896;SDS011;43407;51.828;-2.298;2023-05-14T13:24:06;11.82;;;10.63;;
34896;SDS011;43407;51.828;-2.298;2023-05-14T13:26:34;14.07;;;9.95;;
34896;SDS011;43407;51.828;-2.298;2023-05-14T13:29:00;11.73;;;10.52;;
34896;SDS011;43407;51.828;-2.298;2023-05-14T13:31:26;11.68;;;10.45;;
34896;SDS011;43407;51.828;-2.298;2023-05-14T13:33:51;12.07;;;10.85;;
34896;SDS011;43407;51.828;-2.298;2023-05-14T13:36:17;11.98;;;9.25;;
34896;SDS011;43407;51.828;-2.298;2023-05-14T13:38:43;11.15;;;10.05;;
34896;SDS011;43407;51.828;-2.298;2023-05-14T13:41:10;10.73;;;9.63;;
34896;SDS011;43407;51.828;-2.298;2023-05-14T13:43:35;11.68;;;10.52;;
34896;SDS011;43407;51.828;-2.298;2023-05-14T13:46:01;12.00;;;9.73;;
34896;SDS011;43407;51.828;-2.298;2023-05-14T13:48:28;13.05;;;9.70;;
34896;SDS011;43407;51.828;-2.298;2023-05-14T13:50:55;10.73;;;9.50;;
34896;SDS011;43407;51.828;-2.298;2023-05-14T13:53:21;11.18;;;9.48;;
34896;SDS011;43407;51.828;-2.298;2023-05-14T13:55:47;11.23;;;8.93;;
34896;SDS011;43407;51.828;-2.298;2023-05-14T13:58:12;10.07;;;9.13;;
34896;SDS011;43407;51.828;-2.298;2023-05-14T14:00:38;15.55;;;11.00;;
34896;SDS011;43407;51.828;-2.298;2023-05-14T14:03:04;10.85;;;9.75;;
34896;SDS011;43407;51.828;-2.298;2023-05-14T14:05:29;15.10;;;10.45;;
34896;SDS011;43407;51.828;-2.298;2023-05-14T14:07:55;11.20;;;9.45;;
34896;SDS011;43407;51.828;-2.298;2023-05-14T14:10:21;9.50;;;8.52;;
34896;SDS011;43407;51.828;-2.298;2023-05-14T14:12:47;11.68;;;9.48;;
34896;SDS011;43407;51.828;-2.298;2023-05-14T14:15:13;11.05;;;9.95;;
34896;SDS011;43407;51.828;-2.298;2023-05-14T14:17:38;11.52;;;10.18;;
34896;SDS011;43407;51.828;-2.298;2023-05-14T14:20:09;15.80;;;11.98;;
34896;SDS011;43407;51.828;-2.298;2023-05-14T14:22:35;13.52;;;10.98;;
34896;SDS011;43407;51.828;-2.298;2023-05-14T14:25:01;12.20;;;10.90;;